createdAt,value
2022-07-25T00:01:54.564Z,5.53
2022-07-25T00:04:22.038Z,6.03
2022-07-25T00:06:49.401Z,5.50
2022-07-25T00:09:16.566Z,5.10
2022-07-25T00:11:43.822Z,5.77
2022-07-25T00:14:11.035Z,5.10
2022-07-25T00:16:38.165Z,5.60
2022-07-25T00:19:05.313Z,5.20
2022-07-25T00:21:35.756Z,6.00
2022-07-25T00:24:03.174Z,6.47
2022-07-25T00:26:30.482Z,5.87
2022-07-25T00:28:57.499Z,5.77
2022-07-25T00:31:24.642Z,6.07
2022-07-25T00:33:51.776Z,5.97
2022-07-25T00:36:21.554Z,5.70
2022-07-25T00:38:50.427Z,5.80
2022-07-25T00:41:17.978Z,5.57
2022-07-25T00:43:45.972Z,5.73
2022-07-25T00:46:18.908Z,6.10
2022-07-25T00:48:46.672Z,6.73
2022-07-25T00:51:14.868Z,7.07
2022-07-25T00:53:42.238Z,6.53
2022-07-25T00:56:09.366Z,5.90
2022-07-25T00:58:36.344Z,8.37
2022-07-25T01:01:06.967Z,6.73
2022-07-25T01:03:34.226Z,7.50
2022-07-25T01:06:01.260Z,6.43
2022-07-25T01:08:28.525Z,6.60
2022-07-25T01:10:58.770Z,6.50
2022-07-25T01:13:25.734Z,5.80
2022-07-25T01:15:52.799Z,6.10
2022-07-25T01:18:19.877Z,5.93
2022-07-25T01:20:46.996Z,6.20
2022-07-25T01:23:14.005Z,5.77
2022-07-25T01:25:41.084Z,5.73
2022-07-25T01:28:08.095Z,6.10
2022-07-25T01:30:35.319Z,5.87
2022-07-25T01:33:06.752Z,6.93
2022-07-25T01:35:34.227Z,6.23
2022-07-25T01:38:01.304Z,7.27
2022-07-25T01:40:28.334Z,7.37
2022-07-25T01:42:55.317Z,8.37
2022-07-25T01:45:22.406Z,5.60
2022-07-25T01:47:49.506Z,5.40
2022-07-25T01:50:16.600Z,6.37
2022-07-25T01:52:44.303Z,7.10
2022-07-25T01:55:11.727Z,6.73
2022-07-25T01:57:40.068Z,6.77
2022-07-25T02:00:10.716Z,6.67
2022-07-25T02:02:37.773Z,6.13
2022-07-25T02:05:05.212Z,6.13
2022-07-25T02:07:32.345Z,6.30
2022-07-25T02:09:59.330Z,6.97
2022-07-25T02:12:26.429Z,6.87
2022-07-25T02:14:53.711Z,6.27
2022-07-25T02:17:20.801Z,7.10
2022-07-25T02:19:47.869Z,7.07
2022-07-25T02:22:15.984Z,6.63
2022-07-25T02:24:43.648Z,6.60
2022-07-25T02:27:13.055Z,6.60
2022-07-25T02:29:40.029Z,6.70
2022-07-25T02:32:07.135Z,6.73
2022-07-25T02:34:34.141Z,6.50
2022-07-25T02:37:01.094Z,6.70
2022-07-25T02:39:28.254Z,6.93
2022-07-25T02:41:55.241Z,6.93
2022-07-25T02:44:22.213Z,6.50
2022-07-25T02:46:49.970Z,6.37
2022-07-25T02:49:17.046Z,5.77
2022-07-25T02:51:44.212Z,6.70
2022-07-25T02:54:17.071Z,6.03
2022-07-25T02:56:47.422Z,5.93
2022-07-25T02:59:14.549Z,5.90
2022-07-25T03:01:41.816Z,5.00
2022-07-25T03:04:09.412Z,6.30
2022-07-25T03:06:36.917Z,6.47
2022-07-25T03:09:04.764Z,5.90
2022-07-25T03:11:31.781Z,5.50
2022-07-25T03:13:58.902Z,5.87
2022-07-25T03:16:26.224Z,6.00
2022-07-25T03:18:53.263Z,5.90
2022-07-25T03:21:20.562Z,5.80
2022-07-25T03:23:52.268Z,6.87
2022-07-25T03:26:21.060Z,6.13
2022-07-25T03:28:50.935Z,7.10
2022-07-25T03:31:19.268Z,6.07
2022-07-25T03:33:47.435Z,5.60
2022-07-25T03:36:16.674Z,5.80
2022-07-25T03:38:58.818Z,5.20
2022-07-25T03:41:42.149Z,5.90
2022-07-25T03:44:47.648Z,5.53
2022-07-25T03:50:41.201Z,4.90
2022-07-25T03:53:16.327Z,5.40
2022-07-25T03:55:55.172Z,5.77
2022-07-25T03:58:31.631Z,5.60
2022-07-25T04:01:01.945Z,6.10
2022-07-25T04:03:38.184Z,5.87
2022-07-25T04:06:06.641Z,5.23
2022-07-25T04:08:47.907Z,6.17
2022-07-25T04:11:19.684Z,6.30
2022-07-25T04:13:50.449Z,6.90
2022-07-25T04:16:22.198Z,6.47
2022-07-25T04:19:00.609Z,5.60
2022-07-25T04:21:37.404Z,5.67
2022-07-25T04:24:15.020Z,6.23
2022-07-25T04:26:53.573Z,5.40
2022-07-25T04:29:24.322Z,5.87
2022-07-25T04:31:59.352Z,5.97
2022-07-25T04:34:56.700Z,5.60
2022-07-25T04:37:27.792Z,5.17
2022-07-25T04:40:16.911Z,5.47
2022-07-25T04:42:52.288Z,5.20
2022-07-25T04:45:32.716Z,5.43
2022-07-25T04:48:10.036Z,5.30
2022-07-25T04:50:37.603Z,5.77
2022-07-25T04:53:05.369Z,5.50
2022-07-25T04:55:32.779Z,4.07
2022-07-25T04:58:02.259Z,4.73
2022-07-25T05:00:29.423Z,4.50
2022-07-25T05:02:56.528Z,4.60
2022-07-25T05:06:27.411Z,4.73
2022-07-25T05:12:27.937Z,4.60
2022-07-25T05:15:40.010Z,3.95
2022-07-25T05:18:13.719Z,3.63
2022-07-25T05:21:19.395Z,4.63
2022-07-25T05:24:01.142Z,4.03
2022-07-25T05:26:28.350Z,3.72
2022-07-25T05:28:55.537Z,4.00
2022-07-25T05:31:22.609Z,3.40
2022-07-25T05:33:49.834Z,3.30
2022-07-25T05:36:18.469Z,3.20
2022-07-25T05:38:45.593Z,3.72
2022-07-25T05:41:14.817Z,3.10
2022-07-25T05:43:46.075Z,3.38
2022-07-25T05:46:13.665Z,3.40
2022-07-25T05:48:41.774Z,3.40
2022-07-25T05:51:10.052Z,3.20
2022-07-25T05:53:37.251Z,3.50
2022-07-25T05:56:05.160Z,3.13
2022-07-25T05:58:32.219Z,3.17
2022-07-25T06:00:59.317Z,2.95
2022-07-25T06:03:26.728Z,3.25
2022-07-25T06:05:56.692Z,3.63
2022-07-25T06:08:23.949Z,2.92
2022-07-25T06:10:52.186Z,3.33
2022-07-25T06:13:20.891Z,3.00
2022-07-25T06:15:48.139Z,3.00
2022-07-25T06:18:15.392Z,3.20
2022-07-25T06:20:42.499Z,3.17
2022-07-25T06:23:09.648Z,3.10
2022-07-25T06:25:36.767Z,2.80
2022-07-25T06:28:03.996Z,3.05
2022-07-25T06:30:31.389Z,3.00
2022-07-25T06:32:58.453Z,3.30
2022-07-25T06:35:25.570Z,3.30
2022-07-25T06:37:52.746Z,3.05
2022-07-25T06:40:20.207Z,3.60
2022-07-25T06:42:48.078Z,4.25
2022-07-25T06:45:15.620Z,3.55
2022-07-25T06:47:44.229Z,3.50
2022-07-25T06:50:47.874Z,4.05
2022-07-25T06:53:15.066Z,3.97
2022-07-25T06:55:42.374Z,3.75
2022-07-25T06:58:09.423Z,3.83
2022-07-25T07:00:36.629Z,3.55
2022-07-25T07:03:03.897Z,3.92
2022-07-25T07:05:33.256Z,3.72
2022-07-25T07:08:00.984Z,4.40
2022-07-25T07:10:28.632Z,3.80
2022-07-25T07:13:08.152Z,3.97
2022-07-25T07:15:36.218Z,4.03
2022-07-25T07:18:03.996Z,3.67
2022-07-25T07:20:31.262Z,4.32
2022-07-25T07:22:58.289Z,3.88
2022-07-25T07:25:28.298Z,4.45
2022-07-25T07:27:55.697Z,4.40
2022-07-25T07:30:25.507Z,4.68
2022-07-25T07:33:00.631Z,5.68
2022-07-25T07:35:27.832Z,4.80
2022-07-25T07:37:55.433Z,4.35
2022-07-25T07:40:22.853Z,4.38
2022-07-25T07:42:52.050Z,4.63
2022-07-25T07:45:31.360Z,4.40
2022-07-25T07:47:58.385Z,4.40
2022-07-25T07:50:27.515Z,4.18
2022-07-25T07:52:55.940Z,4.65
2022-07-25T07:55:42.149Z,4.32
2022-07-25T07:58:10.036Z,4.47
2022-07-25T08:00:39.446Z,4.80
2022-07-25T08:03:08.799Z,4.35
2022-07-25T08:05:38.754Z,4.30
2022-07-25T08:08:08.246Z,5.10
2022-07-25T14:05:21.989Z,8.73
2022-07-25T14:07:49.106Z,5.25
2022-07-25T14:10:16.200Z,6.40
2022-07-25T14:12:43.276Z,6.57
2022-07-25T14:15:11.056Z,6.97
2022-07-25T14:17:40.255Z,7.40
2022-07-25T14:20:09.535Z,8.07
2022-07-25T14:22:36.899Z,9.20
2022-07-25T14:25:04.214Z,7.47
2022-07-25T14:27:33.530Z,11.93
2022-07-25T14:30:00.936Z,8.60
2022-07-25T14:32:28.118Z,8.00
2022-07-25T14:34:55.175Z,7.38
2022-07-25T14:37:23.409Z,9.75
2022-07-25T14:39:50.984Z,6.85
2022-07-25T14:42:18.128Z,4.97
2022-07-25T14:44:45.269Z,5.80
2022-07-25T14:47:12.910Z,6.10
2022-07-25T14:49:40.751Z,6.93
2022-07-25T14:52:07.868Z,5.53
2022-07-25T14:54:34.993Z,5.70
2022-07-25T14:57:02.291Z,6.70
2022-07-25T14:59:29.520Z,5.55
2022-07-25T15:01:56.802Z,4.60
2022-07-25T15:04:25.330Z,4.80
2022-07-25T15:06:53.012Z,5.20
2022-07-25T15:09:21.319Z,5.00
2022-07-25T15:11:49.118Z,5.80
2022-07-25T15:14:16.196Z,5.63
2022-07-25T15:16:43.547Z,6.65
2022-07-25T15:19:16.490Z,5.72
2022-07-25T15:21:45.164Z,6.72
2022-07-25T15:24:12.577Z,5.55
2022-07-25T15:26:39.820Z,7.53
2022-07-25T15:29:09.796Z,6.68
2022-07-25T15:31:37.950Z,5.78
2022-07-25T15:34:05.350Z,6.13
2022-07-25T15:36:32.449Z,6.00
2022-07-25T15:38:59.527Z,5.68
2022-07-25T15:41:26.742Z,6.43
2022-07-25T15:43:53.862Z,14.60
2022-07-25T15:46:21.041Z,6.97
2022-07-25T15:48:48.868Z,5.60
2022-07-25T15:51:19.349Z,5.97
2022-07-25T15:53:46.491Z,5.07
2022-07-25T15:56:17.331Z,5.13
2022-07-25T15:58:44.719Z,5.18
2022-07-25T16:01:11.895Z,5.43
2022-07-25T16:03:39.132Z,5.82
2022-07-25T16:06:06.715Z,5.28
2022-07-25T16:08:35.690Z,4.90
2022-07-25T16:11:03.888Z,4.85
2022-07-25T16:13:31.155Z,5.45
2022-07-25T16:15:58.234Z,5.03
2022-07-25T16:18:26.895Z,4.90
2022-07-25T16:20:54.010Z,4.90
2022-07-25T16:23:23.156Z,4.90
2022-07-25T16:25:50.479Z,4.90
2022-07-25T16:28:17.740Z,4.97
2022-07-25T16:30:46.235Z,5.53
2022-07-25T16:33:32.281Z,5.32
2022-07-25T16:36:00.795Z,4.70
2022-07-25T16:38:28.892Z,5.22
2022-07-25T16:40:56.104Z,4.70
2022-07-25T16:43:23.441Z,5.28
2022-07-25T16:45:50.580Z,4.82
2022-07-25T16:48:17.809Z,5.15
2022-07-25T16:50:44.905Z,5.00
2022-07-25T16:53:11.961Z,4.57
2022-07-25T16:55:39.165Z,5.40
2022-07-25T16:58:06.334Z,5.38
2022-07-25T17:00:33.508Z,5.30
2022-07-25T17:03:01.194Z,6.75
2022-07-25T17:05:28.316Z,5.53
2022-07-25T17:07:59.579Z,5.32
2022-07-25T17:10:27.941Z,4.80
2022-07-25T17:12:56.669Z,5.35
2022-07-25T17:15:24.098Z,5.88
2022-07-25T17:17:51.275Z,5.95
2022-07-25T17:20:19.314Z,5.72
2022-07-25T17:22:46.406Z,5.32
2022-07-25T17:25:13.576Z,5.00
2022-07-25T17:27:40.726Z,4.55
2022-07-25T17:30:08.165Z,4.90
2022-07-25T17:32:35.350Z,4.80
2022-07-25T17:35:02.447Z,4.85
2022-07-25T17:37:29.716Z,4.57
2022-07-25T17:39:59.599Z,5.38
2022-07-25T17:42:26.779Z,69.20
2022-07-25T17:44:54.054Z,102.10
2022-07-25T17:47:22.095Z,29.48
2022-07-25T17:49:50.172Z,32.03
2022-07-25T17:52:17.893Z,16.40
2022-07-25T17:54:45.027Z,15.93
2022-07-25T17:57:12.076Z,21.58
2022-07-25T17:59:39.282Z,22.52
2022-07-25T18:02:06.463Z,21.67
2022-07-25T18:04:33.777Z,18.20
2022-07-25T18:07:00.880Z,25.30
2022-07-25T18:09:27.969Z,18.33
2022-07-25T18:11:55.029Z,19.67
2022-07-25T18:14:22.132Z,12.70
2022-07-25T18:16:49.337Z,11.70
2022-07-25T18:19:16.461Z,10.10
2022-07-25T18:21:45.441Z,9.30
2022-07-25T18:24:12.485Z,8.32
2022-07-25T18:26:40.737Z,8.27
2022-07-25T18:29:08.754Z,9.48
2022-07-25T18:31:46.298Z,7.63
2022-07-25T18:34:13.606Z,8.88
2022-07-25T18:36:43.724Z,9.38
2022-07-25T18:39:11.551Z,8.73
2022-07-25T18:41:38.767Z,8.57
2022-07-25T18:44:06.835Z,10.38
2022-07-25T18:46:34.669Z,9.57
2022-07-25T18:49:02.976Z,9.82
2022-07-25T18:51:30.421Z,8.95
2022-07-25T18:53:57.534Z,9.27
2022-07-25T18:56:24.769Z,7.97
2022-07-25T18:58:51.959Z,10.10
2022-07-25T19:01:22.505Z,8.25
2022-07-25T19:03:49.800Z,7.43
2022-07-25T19:06:17.218Z,7.72
2022-07-25T19:08:46.112Z,9.13
2022-07-25T19:11:13.815Z,9.02
2022-07-25T19:13:49.932Z,8.00
2022-07-25T19:16:18.550Z,11.02
2022-07-25T19:18:46.029Z,8.82
2022-07-25T19:21:13.538Z,10.50
2022-07-25T19:23:40.748Z,6.82
2022-07-25T19:26:08.121Z,7.40
2022-07-25T19:28:36.366Z,8.00
2022-07-25T19:31:03.900Z,7.60
2022-07-25T19:33:34.682Z,7.35
2022-07-25T19:36:04.265Z,8.70
2022-07-25T19:38:31.954Z,9.15
2022-07-25T19:40:59.609Z,8.95
2022-07-25T19:43:26.843Z,8.70
2022-07-25T19:45:54.233Z,8.20
2022-07-25T19:48:23.903Z,10.45
2022-07-25T19:50:52.358Z,8.13
2022-07-25T19:53:19.676Z,9.05
2022-07-25T19:55:46.773Z,9.68
2022-07-25T19:58:14.024Z,9.32
2022-07-25T20:00:41.378Z,9.40
2022-07-25T20:03:09.293Z,8.30
2022-07-25T20:05:36.846Z,8.68
2022-07-25T20:08:04.096Z,9.00
2022-07-25T20:10:31.514Z,7.43
2022-07-25T20:13:01.408Z,8.85
2022-07-25T20:15:29.503Z,9.27
2022-07-25T20:17:56.912Z,8.20
2022-07-25T20:20:25.298Z,7.30
2022-07-25T20:22:52.991Z,7.53
2022-07-25T20:25:20.320Z,7.35
2022-07-25T20:27:49.912Z,7.43
2022-07-25T20:30:18.176Z,7.95
2022-07-25T20:32:45.632Z,7.35
2022-07-25T20:35:13.197Z,7.53
2022-07-25T20:37:40.400Z,6.15
2022-07-25T20:40:09.422Z,5.80
2022-07-25T20:42:43.050Z,6.30
2022-07-25T20:45:10.858Z,5.90
2022-07-25T20:47:38.062Z,7.40
2022-07-25T20:50:05.624Z,6.45
2022-07-25T20:52:33.471Z,7.25
2022-07-25T20:55:00.599Z,5.43
2022-07-25T20:57:34.053Z,5.65
2022-07-25T21:00:01.203Z,5.55
2022-07-25T21:02:28.316Z,8.70
2022-07-25T21:04:55.968Z,10.45
2022-07-25T21:07:23.104Z,3.90
2022-07-25T21:09:50.329Z,5.80
2022-07-25T21:12:17.460Z,6.50
2022-07-25T21:14:44.687Z,3.60
2022-07-25T21:17:11.966Z,8.52
2022-07-25T21:19:39.283Z,6.35
2022-07-25T21:22:07.204Z,11.68
2022-07-25T21:24:34.345Z,6.43
2022-07-25T21:27:02.798Z,6.63
2022-07-25T21:29:29.911Z,5.15
2022-07-25T21:31:57.186Z,6.38
2022-07-25T21:34:24.396Z,4.28
2022-07-25T21:36:54.206Z,3.92
2022-07-25T21:39:21.343Z,4.72
2022-07-25T21:41:48.541Z,12.25
2022-07-25T21:44:22.818Z,5.90
2022-07-25T21:46:50.973Z,4.95
2022-07-25T21:49:41.015Z,5.13
2022-07-25T21:52:13.984Z,4.13
2022-07-25T21:54:42.568Z,3.72
2022-07-25T21:57:13.547Z,5.82
2022-07-25T21:59:44.934Z,5.72
2022-07-25T22:02:13.288Z,5.72
2022-07-25T22:04:40.685Z,3.13
2022-07-25T22:07:07.813Z,5.80
2022-07-25T22:09:35.589Z,4.45
2022-07-25T22:12:02.942Z,5.05
2022-07-25T22:14:30.596Z,12.75
2022-07-25T22:16:57.830Z,7.43
2022-07-25T22:19:24.972Z,3.88
2022-07-25T22:21:52.165Z,3.90
2022-07-25T22:24:19.370Z,4.72
2022-07-25T22:26:46.510Z,5.35
2022-07-25T22:29:13.633Z,4.57
2022-07-25T22:31:40.922Z,4.28
2022-07-25T22:34:08.897Z,4.95
2022-07-25T22:36:36.243Z,12.00
2022-07-25T22:39:03.493Z,6.82
2022-07-25T22:41:30.618Z,7.70
2022-07-25T22:43:59.836Z,5.68
2022-07-25T22:46:29.270Z,9.20
2022-07-25T22:48:57.595Z,4.53
2022-07-25T22:51:25.248Z,4.13
2022-07-25T22:53:52.478Z,7.13
2022-07-25T22:56:20.449Z,9.13
2022-07-25T22:58:48.851Z,9.80
2022-07-25T23:01:17.716Z,3.80
2022-07-25T23:03:49.936Z,6.68
2022-07-25T23:06:18.940Z,5.45
2022-07-25T23:08:47.188Z,4.90
2022-07-25T23:11:14.220Z,3.90
2022-07-25T23:13:41.311Z,4.70
2022-07-25T23:16:10.362Z,4.23
2022-07-25T23:18:38.296Z,3.92
2022-07-25T23:21:06.360Z,3.70
2022-07-25T23:23:33.952Z,3.90
2022-07-25T23:26:01.297Z,3.40
2022-07-25T23:28:28.527Z,5.67
2022-07-25T23:30:55.725Z,2.90
2022-07-25T23:33:25.891Z,3.20
2022-07-25T23:35:54.187Z,3.80
2022-07-25T23:38:21.884Z,2.87
2022-07-25T23:40:49.833Z,4.63
2022-07-25T23:43:29.859Z,3.87
2022-07-25T23:46:05.579Z,2.63
2022-07-25T23:48:35.475Z,2.80
2022-07-25T23:51:02.556Z,3.87
2022-07-25T23:53:29.666Z,2.90
2022-07-25T23:55:57.320Z,3.27
2022-07-25T23:58:24.335Z,3.23
